Aviation Digital Data Service (ADDS)

Output produced by METARs form (0653 UTC 24 March 2019)
found at http://www.aviationweather.gov/metar/data/
 
EGYP 240650Z 11005KT 9999 BKN027 02/M02 Q1022 BLU
TAF EGYP 240449Z 2406/2424 12005KT 9999 FEW030 
     BECMG 2419/2421 32015KT 
     BECMG 2421/2423 32015G25KT 520003 
     PROB40 
     TEMPO 2423/2424 33025G35KT 530003 
     PROB30 
     TEMPO 2423/2424 VRB05KT SCT008 560003